Time;durP1;ratioP1;P1;durP2;ratioP2;P2;SDS_P1;SDS_P2;PMS_P1;PMS_P2;Temp;Humidity;BMP_temperature;BMP_pressure;BME280_temperature;BME280_humidity;BME280_pressure;Samples;Min_cycle;Max_cycle;Signal;HPM_P1;HPM_P2
2023/08/08 00:02:19;;;;;;;;;;;10.20;99.90;;;;;;5035960;28;19909;-86
2023/08/08 00:04:45;;;;;;;;;;;10.00;99.90;;;;;;5085652;28;19991;-86
2023/08/08 00:07:11;;;;;;;;;;;9.80;99.90;;;;;;5038006;28;19913;-86
2023/08/08 00:09:37;;;;;;;;;;;9.70;99.90;;;;;;5056383;28;19913;-86
2023/08/08 00:12:03;;;;;;;;;;;9.70;99.90;;;;;;5039641;28;19909;-86
2023/08/08 00:14:28;;;;;;;;;;;9.60;99.90;;;;;;5056323;28;19909;-86
2023/08/08 00:16:54;;;;;;;;;;;9.50;99.90;;;;;;5057592;28;19909;-86
2023/08/08 00:19:20;;;;;;;;;;;9.40;99.90;;;;;;5057372;28;19912;-86
2023/08/08 00:21:45;;;;;;;;;;;9.40;99.90;;;;;;5056117;28;20670;-86
2023/08/08 00:24:11;;;;;;;;;;;9.50;99.90;;;;;;5039626;28;19932;-86
2023/08/08 00:26:36;;;;;;;;;;;9.50;99.90;;;;;;5056338;28;19916;-85
2023/08/08 00:29:02;;;;;;;;;;;9.50;99.90;;;;;;5055966;28;19916;-86
2023/08/08 00:31:27;;;;;;;;;;;9.40;99.90;;;;;;5039036;28;20279;-86
2023/08/08 00:33:53;;;;;;;;;;;9.40;99.90;;;;;;5055983;28;19913;-86
2023/08/08 00:36:18;;;;;;;;;;;9.40;99.90;;;;;;5055705;28;20437;-86
2023/08/08 00:38:44;;;;;;;;;;;9.50;99.90;;;;;;5055986;28;20401;-86
2023/08/08 00:41:10;;;;;;;;;;;9.60;99.90;;;;;;5055870;28;19968;-86
2023/08/08 00:43:35;;;;;;;;;;;9.80;99.90;;;;;;5072272;28;19995;-86
2023/08/08 00:46:01;;;;;;;;;;;10.00;99.90;;;;;;5056111;28;19958;-86
2023/08/08 00:48:26;;;;;;;;;;;10.10;99.90;;;;;;5055826;28;19909;-86
2023/08/08 00:51:20;;;;;;;;;;;10.10;99.90;;;;;;5039060;28;19909;-86
2023/08/08 00:53:47;;;;;;;;;;;10.10;99.90;;;;;;5057037;28;20371;-85
2023/08/08 00:56:13;;;;;;;;;;;9.90;99.90;;;;;;5038971;28;19915;-86
2023/08/08 00:58:39;;;;;;;;;;;9.90;99.90;;;;;;5039082;28;19913;-86
2023/08/08 01:01:05;;;;;;;;;;;9.90;99.90;;;;;;5055651;28;19938;-85
2023/08/08 01:03:30;;;;;;;;;;;9.90;99.90;;;;;;5038890;28;20068;-85
2023/08/08 01:06:09;;;;;;;;;;;9.90;99.90;;;;;;5038612;28;20279;-86
2023/08/08 01:08:39;;;;;;;;;;;9.90;99.90;;;;;;5038519;28;19912;-86
2023/08/08 01:11:05;;;;;;;;;;;10.00;99.90;;;;;;5072120;28;20356;-86
2023/08/08 01:13:31;;;;;;;;;;;10.10;99.90;;;;;;5055360;28;19909;-86
2023/08/08 01:15:57;;;;;;;;;;;10.30;99.90;;;;;;5055435;28;19908;-86
2023/08/08 01:18:23;;;;;;;;;;;10.30;99.90;;;;;;5037777;28;19916;-86
2023/08/08 01:20:50;;;;;;;;;;;10.50;99.90;;;;;;5055433;28;20020;-86
2023/08/08 01:23:19;;;;;;;;;;;10.50;99.90;;;;;;5038591;28;20003;-86
2023/08/08 01:25:45;;;;;;;;;;;10.60;99.90;;;;;;5071915;28;19908;-85
2023/08/08 01:28:11;;;;;;;;;;;10.50;99.90;;;;;;5054975;28;19912;-86
2023/08/08 01:30:37;;;;;;;;;;;10.60;99.90;;;;;;5055072;28;20417;-86
2023/08/08 01:33:03;;;;;;;;;;;10.60;99.90;;;;;;5038315;28;19948;-86
2023/08/08 01:35:30;;;;;;;;;;;10.60;99.90;;;;;;5055030;28;20365;-86
2023/08/08 01:38:00;;;;;;;;;;;10.60;99.90;;;;;;5037792;28;20418;-84
2023/08/08 01:40:27;;;;;;;;;;;10.60;99.90;;;;;;5070359;28;19912;-86
2023/08/08 01:42:53;;;;;;;;;;;10.60;99.90;;;;;;5088256;28;19915;-86
2023/08/08 01:45:19;;;;;;;;;;;10.40;99.90;;;;;;5038563;28;19908;-86
2023/08/08 01:47:51;;;;;;;;;;;10.40;99.90;;;;;;5038086;28;19931;-86
2023/08/08 01:50:17;;;;;;;;;;;10.20;99.90;;;;;;5055269;28;19912;-86
2023/08/08 01:52:43;;;;;;;;;;;10.20;99.90;;;;;;5054891;28;20292;-86
2023/08/08 01:55:09;;;;;;;;;;;10.10;99.90;;;;;;5054729;28;19920;-86
2023/08/08 01:57:34;;;;;;;;;;;10.10;99.90;;;;;;5055290;28;19909;-86
2023/08/08 02:00:00;;;;;;;;;;;10.00;99.90;;;;;;5037981;28;19982;-86
2023/08/08 02:02:25;;;;;;;;;;;9.90;99.90;;;;;;5038095;28;19908;-86
2023/08/08 02:04:53;;;;;;;;;;;9.90;99.90;;;;;;5054602;28;19943;-86
2023/08/08 02:07:18;;;;;;;;;;;9.80;99.90;;;;;;5054456;28;19909;-86
2023/08/08 02:09:45;;;;;;;;;;;9.70;99.90;;;;;;5037793;28;19917;-86
2023/08/08 02:12:11;;;;;;;;;;;9.50;99.90;;;;;;5037835;28;19909;-86
2023/08/08 02:14:37;;;;;;;;;;;9.50;99.90;;;;;;5054534;28;19959;-86
2023/08/08 02:17:03;;;;;;;;;;;9.50;99.90;;;;;;5054184;28;19996;-86
2023/08/08 02:19:30;;;;;;;;;;;9.40;99.90;;;;;;5054461;28;19908;-86
2023/08/08 02:21:56;;;;;;;;;;;9.30;99.90;;;;;;5054086;28;19955;-86
2023/08/08 02:24:21;;;;;;;;;;;9.20;99.90;;;;;;5054422;28;20256;-86
2023/08/08 02:26:47;;;;;;;;;;;9.20;99.90;;;;;;5037409;28;20414;-86
2023/08/08 02:29:13;;;;;;;;;;;9.10;99.90;;;;;;5087171;28;19912;-86
2023/08/08 02:31:39;;;;;;;;;;;9.00;99.90;;;;;;5054152;28;19909;-86
2023/08/08 02:34:04;;;;;;;;;;;8.90;99.90;;;;;;5054009;28;20046;-86
2023/08/08 02:36:30;;;;;;;;;;;8.80;99.90;;;;;;5037284;28;19912;-86
2023/08/08 02:42:24;;;;;;;;;;;8.60;99.90;;;;;;5048398;28;20008;-86
2023/08/08 02:44:50;;;;;;;;;;;8.70;99.90;;;;;;5053695;28;19951;-86
2023/08/08 02:47:15;;;;;;;;;;;8.70;99.90;;;;;;5053611;28;19905;-85
2023/08/08 02:49:41;;;;;;;;;;;8.70;99.90;;;;;;5036964;28;19958;-86
2023/08/08 02:52:07;;;;;;;;;;;8.60;99.90;;;;;;5053792;28;19947;-86
2023/08/08 02:54:34;;;;;;;;;;;8.60;99.90;;;;;;5036846;28;19920;-86
2023/08/08 02:57:00;;;;;;;;;;;8.50;99.90;;;;;;5070176;28;20355;-86
2023/08/08 02:59:25;;;;;;;;;;;8.40;99.90;;;;;;5036914;28;19998;-86
2023/08/08 03:01:52;;;;;;;;;;;8.40;99.90;;;;;;5037505;28;20359;-86
2023/08/08 03:04:18;;;;;;;;;;;8.40;99.90;;;;;;5036957;28;19905;-86
2023/08/08 03:06:44;;;;;;;;;;;8.50;99.90;;;;;;5037074;28;19955;-86
2023/08/08 03:09:10;;;;;;;;;;;8.50;99.90;;;;;;5037252;28;20351;-86
2023/08/08 03:11:41;;;;;;;;;;;8.60;99.90;;;;;;5037346;28;19904;-86
2023/08/08 03:14:08;;;;;;;;;;;8.60;99.90;;;;;;5036784;28;19999;-86
2023/08/08 03:16:35;;;;;;;;;;;8.50;99.90;;;;;;5037009;28;19932;-86
2023/08/08 03:19:01;;;;;;;;;;;8.50;99.90;;;;;;5053403;28;20379;-86
2023/08/08 03:21:27;;;;;;;;;;;8.50;99.90;;;;;;5037003;28;19905;-86
2023/08/08 03:23:53;;;;;;;;;;;8.70;99.90;;;;;;5037098;28;19915;-86
2023/08/08 03:26:19;;;;;;;;;;;8.90;99.90;;;;;;5053702;28;20287;-86
2023/08/08 03:28:50;;;;;;;;;;;9.10;99.90;;;;;;5082405;28;19912;-86
2023/08/08 03:31:17;;;;;;;;;;;9.20;99.90;;;;;;5036728;28;19909;-86
2023/08/08 03:33:43;;;;;;;;;;;9.30;99.90;;;;;;5053272;28;20253;-86
2023/08/08 03:36:10;;;;;;;;;;;9.40;99.90;;;;;;5053224;28;19921;-86
2023/08/08 03:38:37;;;;;;;;;;;9.50;99.90;;;;;;5054647;28;19913;-87
2023/08/08 03:41:03;;;;;;;;;;;9.60;99.90;;;;;;5035973;28;20281;-86
2023/08/08 03:43:29;;;;;;;;;;;9.70;99.90;;;;;;5037109;28;19920;-86
2023/08/08 03:45:55;;;;;;;;;;;9.80;99.90;;;;;;5038020;28;19912;-86
2023/08/08 03:48:21;;;;;;;;;;;10.00;99.90;;;;;;5053196;28;19909;-86
2023/08/08 03:51:06;;;;;;;;;;;10.00;99.90;;;;;;5052365;28;19919;-86
2023/08/08 03:53:32;;;;;;;;;;;10.00;99.90;;;;;;5045456;28;19931;-86
2023/08/08 03:55:58;;;;;;;;;;;9.90;99.90;;;;;;5036394;28;19913;-87
2023/08/08 03:58:24;;;;;;;;;;;9.90;99.90;;;;;;5061555;28;19909;-87
2023/08/08 04:00:49;;;;;;;;;;;9.80;99.90;;;;;;5036164;28;19920;-85
2023/08/08 04:03:15;;;;;;;;;;;9.80;99.90;;;;;;5086444;28;19909;-86
2023/08/08 04:05:46;;;;;;;;;;;9.80;99.90;;;;;;5053112;28;19909;-86
2023/08/08 04:08:11;;;;;;;;;;;9.90;99.90;;;;;;5059664;28;19916;-87
2023/08/08 04:10:37;;;;;;;;;;;10.00;99.90;;;;;;5052997;28;19908;-86
2023/08/08 04:13:03;;;;;;;;;;;10.10;99.90;;;;;;5069329;28;19908;-87
2023/08/08 04:15:28;;;;;;;;;;;10.20;99.90;;;;;;5036948;28;19908;-88
2023/08/08 04:17:54;;;;;;;;;;;10.20;99.90;;;;;;5036821;28;20383;-87
2023/08/08 04:20:19;;;;;;;;;;;10.20;99.90;;;;;;5036596;28;20007;-88
2023/08/08 04:22:45;;;;;;;;;;;10.30;99.90;;;;;;5053257;28;20390;-87
2023/08/08 04:25:11;;;;;;;;;;;10.30;99.90;;;;;;5035998;28;19916;-87
2023/08/08 04:27:36;;;;;;;;;;;10.30;99.90;;;;;;5053038;28;19995;-87
2023/08/08 04:30:03;;;;;;;;;;;10.30;99.90;;;;;;5036145;28;19913;-87
2023/08/08 04:32:28;;;;;;;;;;;10.20;99.90;;;;;;5036492;28;19908;-87
2023/08/08 04:34:54;;;;;;;;;;;10.20;99.90;;;;;;5052860;28;19997;-87
2023/08/08 04:37:19;;;;;;;;;;;10.10;99.90;;;;;;5052563;28;20067;-86
2023/08/08 04:39:45;;;;;;;;;;;10.10;99.90;;;;;;5036312;28;20062;-87
2023/08/08 04:42:11;;;;;;;;;;;10.00;99.90;;;;;;5052872;28;19916;-87
2023/08/08 04:44:36;;;;;;;;;;;10.10;99.90;;;;;;5036204;28;20367;-87
2023/08/08 04:47:02;;;;;;;;;;;10.00;99.90;;;;;;5052588;28;19909;-86
2023/08/08 04:49:28;;;;;;;;;;;10.00;99.90;;;;;;5035475;28;20023;-87
2023/08/08 04:51:54;;;;;;;;;;;10.00;99.90;;;;;;5053948;28;19952;-87
2023/08/08 04:54:19;;;;;;;;;;;10.00;99.90;;;;;;5038086;28;19912;-87
2023/08/08 04:56:45;;;;;;;;;;;10.00;99.90;;;;;;5056191;28;19958;-87
2023/08/08 04:59:11;;;;;;;;;;;10.00;99.90;;;;;;5039732;28;20000;-87
2023/08/08 05:01:36;;;;;;;;;;;10.00;99.90;;;;;;5039711;28;19909;-87
2023/08/08 05:04:02;;;;;;;;;;;10.00;99.90;;;;;;5039505;28;20240;-87
2023/08/08 05:06:27;;;;;;;;;;;10.00;99.90;;;;;;5057288;28;19909;-86
2023/08/08 05:08:53;;;;;;;;;;;10.10;99.90;;;;;;5039400;28;20004;-87
2023/08/08 05:11:19;;;;;;;;;;;10.10;99.90;;;;;;5056020;28;20281;-86
2023/08/08 05:13:44;;;;;;;;;;;10.20;99.90;;;;;;5055781;28;19971;-87
2023/08/08 05:16:10;;;;;;;;;;;10.30;99.90;;;;;;5055931;28;20367;-87
2023/08/08 05:18:36;;;;;;;;;;;10.50;99.90;;;;;;5039557;28;20058;-87
2023/08/08 05:21:01;;;;;;;;;;;10.60;99.90;;;;;;5055679;28;20272;-87
2023/08/08 05:23:27;;;;;;;;;;;10.60;99.90;;;;;;5056751;28;19916;-87
2023/08/08 05:25:52;;;;;;;;;;;10.70;99.90;;;;;;5039306;28;20364;-87
2023/08/08 05:28:18;;;;;;;;;;;10.70;99.90;;;;;;5038772;28;19905;-87
2023/08/08 05:30:44;;;;;;;;;;;10.80;99.90;;;;;;5038812;28;19913;-87
2023/08/08 05:33:09;;;;;;;;;;;10.80;99.90;;;;;;5038995;28;20368;-87
2023/08/08 05:35:35;;;;;;;;;;;10.70;99.90;;;;;;5055796;28;19909;-86
2023/08/08 05:38:00;;;;;;;;;;;10.70;99.90;;;;;;5038289;28;20390;-86
2023/08/08 05:40:26;;;;;;;;;;;10.80;99.90;;;;;;5038788;28;19909;-86
2023/08/08 05:42:51;;;;;;;;;;;10.80;99.90;;;;;;5033578;28;20382;-89
2023/08/08 05:45:17;;;;;;;;;;;10.80;99.90;;;;;;5036057;28;20055;-88
2023/08/08 05:47:43;;;;;;;;;;;10.90;99.90;;;;;;5054138;28;19916;-88
2023/08/08 05:50:09;;;;;;;;;;;11.10;99.90;;;;;;5066351;28;20069;-87
2023/08/08 05:52:34;;;;;;;;;;;11.30;99.90;;;;;;5042522;28;19952;-87
2023/08/08 05:55:00;;;;;;;;;;;11.40;99.90;;;;;;5051836;28;19946;-87
2023/08/08 05:57:26;;;;;;;;;;;11.40;99.90;;;;;;5047080;28;19909;-87
2023/08/08 05:59:52;;;;;;;;;;;11.40;99.90;;;;;;5037464;28;19955;-87
2023/08/08 06:02:18;;;;;;;;;;;11.40;99.90;;;;;;5064427;28;19909;-87
2023/08/08 06:04:43;;;;;;;;;;;11.30;99.90;;;;;;5037305;28;19909;-87
2023/08/08 06:07:09;;;;;;;;;;;11.30;99.90;;;;;;5052300;28;19912;-87
2023/08/08 06:09:36;;;;;;;;;;;11.20;99.90;;;;;;5045986;28;19909;-88
2023/08/08 06:12:02;;;;;;;;;;;11.20;99.90;;;;;;5048789;28;19948;-88
2023/08/08 06:14:28;;;;;;;;;;;11.20;99.90;;;;;;5036569;28;19916;-88
2023/08/08 06:16:54;;;;;;;;;;;11.30;99.90;;;;;;5036090;28;20022;-88
2023/08/08 06:19:19;;;;;;;;;;;11.40;99.90;;;;;;5045647;28;19913;-88
2023/08/08 06:21:46;;;;;;;;;;;11.40;99.90;;;;;;5037314;28;20555;-87
2023/08/08 06:24:12;;;;;;;;;;;11.50;99.90;;;;;;5045821;28;20349;-87
2023/08/08 06:26:38;;;;;;;;;;;11.60;99.90;;;;;;5035404;28;19916;-87
2023/08/08 06:29:03;;;;;;;;;;;11.60;99.90;;;;;;5052178;28;19987;-88
2023/08/08 06:31:29;;;;;;;;;;;11.70;99.90;;;;;;5036856;28;20330;-88
2023/08/08 06:33:55;;;;;;;;;;;11.80;99.90;;;;;;5081165;28;19905;-88
2023/08/08 06:36:21;;;;;;;;;;;11.90;99.90;;;;;;5067211;28;19982;-88
2023/08/08 06:38:47;;;;;;;;;;;11.90;99.90;;;;;;5051711;28;20280;-88
2023/08/08 06:41:12;;;;;;;;;;;11.90;99.90;;;;;;5043732;28;19948;-89
2023/08/08 06:43:39;;;;;;;;;;;12.00;99.90;;;;;;5052164;28;19999;-88
2023/08/08 06:46:04;;;;;;;;;;;12.10;99.90;;;;;;5053933;28;19996;-88
2023/08/08 06:48:30;;;;;;;;;;;12.10;99.90;;;;;;5052926;28;19943;-87
2023/08/08 06:50:56;;;;;;;;;;;12.30;99.90;;;;;;5036448;28;19920;-86
2023/08/08 06:53:21;;;;;;;;;;;12.40;99.90;;;;;;5053951;28;19904;-88
2023/08/08 06:55:47;;;;;;;;;;;12.50;99.90;;;;;;5036803;28;20017;-88
2023/08/08 06:58:13;;;;;;;;;;;12.50;99.90;;;;;;5035753;28;20340;-89
2023/08/08 07:00:39;;;;;;;;;;;12.60;99.90;;;;;;5068411;28;19905;-89
2023/08/08 07:03:05;;;;;;;;;;;12.70;99.90;;;;;;5053894;28;19909;-88
2023/08/08 07:05:30;;;;;;;;;;;12.70;99.90;;;;;;5050015;28;19908;-88
2023/08/08 07:07:56;;;;;;;;;;;12.80;99.90;;;;;;5033022;28;19909;-88
2023/08/08 07:10:22;;;;;;;;;;;12.80;99.90;;;;;;5052427;28;19999;-88
2023/08/08 07:12:48;;;;;;;;;;;12.90;99.90;;;;;;5036161;28;20245;-88
2023/08/08 07:15:14;;;;;;;;;;;13.00;99.90;;;;;;5046116;28;19963;-88
2023/08/08 07:17:40;;;;;;;;;;;13.10;99.90;;;;;;5051944;28;20368;-87
2023/08/08 07:20:05;;;;;;;;;;;13.10;99.90;;;;;;5035819;28;19905;-87
2023/08/08 07:22:32;;;;;;;;;;;13.10;99.90;;;;;;5050227;28;19909;-87
2023/08/08 07:24:58;;;;;;;;;;;13.20;99.90;;;;;;5036147;28;19916;-87
2023/08/08 07:27:23;;;;;;;;;;;13.10;99.90;;;;;;5033196;28;19909;-87
2023/08/08 07:29:49;;;;;;;;;;;13.10;99.90;;;;;;5052865;28;20271;-88
2023/08/08 07:32:14;;;;;;;;;;;13.10;99.90;;;;;;5046891;28;19916;-87
2023/08/08 07:34:40;;;;;;;;;;;13.10;99.90;;;;;;5048668;28;19913;-87
2023/08/08 07:37:06;;;;;;;;;;;13.10;99.90;;;;;;5036326;28;20010;-87
2023/08/08 07:39:32;;;;;;;;;;;13.20;99.90;;;;;;5052687;28;19905;-87
2023/08/08 07:41:57;;;;;;;;;;;13.30;99.90;;;;;;5032122;28;19909;-88
2023/08/08 07:44:23;;;;;;;;;;;13.40;99.90;;;;;;5035771;28;19908;-88
2023/08/08 07:46:48;;;;;;;;;;;13.50;99.90;;;;;;5033183;28;19924;-87
2023/08/08 07:49:14;;;;;;;;;;;13.70;99.90;;;;;;5048049;28;19921;-87
2023/08/08 07:51:40;;;;;;;;;;;13.80;99.90;;;;;;5053055;28;20348;-87
2023/08/08 07:54:08;;;;;;;;;;;13.80;99.90;;;;;;5035048;28;20378;-88
2023/08/08 07:56:34;;;;;;;;;;;14.00;99.90;;;;;;5051748;28;19909;-87
2023/08/08 07:59:01;;;;;;;;;;;14.10;99.90;;;;;;5036168;28;19909;-88
2023/08/08 08:01:27;;;;;;;;;;;14.40;99.90;;;;;;5033327;28;19916;-87
2023/08/08 08:03:52;;;;;;;;;;;14.80;99.90;;;;;;5054477;28;19908;-87
2023/08/08 08:06:18;;;;;;;;;;;15.10;99.90;;;;;;5034129;28;19948;-88
2023/08/08 08:08:44;;;;;;;;;;;15.30;99.90;;;;;;5046370;28;19938;-88
2023/08/08 08:11:10;;;;;;;;;;;15.50;99.90;;;;;;5048619;28;19919;-87
2023/08/08 08:13:36;;;;;;;;;;;15.80;99.90;;;;;;5040779;28;19917;-87
2023/08/08 08:16:02;;;;;;;;;;;15.90;99.90;;;;;;5035766;28;19908;-88
2023/08/08 08:18:28;;;;;;;;;;;16.00;99.90;;;;;;5034751;28;19995;-87
2023/08/08 08:20:55;;;;;;;;;;;16.10;99.90;;;;;;5052115;28;19990;-88
2023/08/08 08:23:20;;;;;;;;;;;16.10;99.90;;;;;;5035791;28;20415;-87
2023/08/08 08:25:46;;;;;;;;;;;16.10;99.90;;;;;;5044269;28;19944;-88
2023/08/08 08:28:12;;;;;;;;;;;16.00;99.90;;;;;;5054280;28;20348;-86
2023/08/08 08:30:38;;;;;;;;;;;16.00;99.90;;;;;;5046922;28;20022;-87
2023/08/08 08:33:07;;;;;;;;;;;15.80;99.90;;;;;;5055472;28;19916;-86
2023/08/08 08:35:32;;;;;;;;;;;15.80;99.90;;;;;;5039491;28;20255;-86
2023/08/08 08:37:58;;;;;;;;;;;16.20;99.90;;;;;;5040004;28;19909;-85
2023/08/08 08:40:24;;;;;;;;;;;16.30;99.90;;;;;;5040200;28;19909;-86
2023/08/08 08:42:49;;;;;;;;;;;16.30;99.90;;;;;;5072967;28;19912;-86
2023/08/08 08:45:18;;;;;;;;;;;16.40;99.90;;;;;;5063917;28;19909;-86
2023/08/08 08:47:46;;;;;;;;;;;16.50;99.90;;;;;;5075596;28;19908;-86
2023/08/08 08:50:14;;;;;;;;;;;16.30;99.90;;;;;;5039850;28;19962;-86
2023/08/08 08:52:42;;;;;;;;;;;16.30;99.90;;;;;;5056395;28;20050;-85
2023/08/08 08:55:08;;;;;;;;;;;16.60;99.90;;;;;;5039031;28;19921;-86
2023/08/08 08:57:34;;;;;;;;;;;16.30;99.90;;;;;;5056330;28;19908;-85
2023/08/08 08:59:59;;;;;;;;;;;16.50;99.90;;;;;;5060312;28;19967;-87
2023/08/08 09:02:25;;;;;;;;;;;16.50;99.90;;;;;;5038899;28;19909;-86
2023/08/08 09:05:01;;;;;;;;;;;16.60;99.90;;;;;;5039213;28;19917;-86
2023/08/08 09:07:29;;;;;;;;;;;16.80;99.90;;;;;;5055793;28;19909;-86
2023/08/08 09:09:55;;;;;;;;;;;16.90;99.90;;;;;;5038817;28;19908;-86
2023/08/08 09:12:21;;;;;;;;;;;17.20;99.90;;;;;;5055604;28;19932;-85
2023/08/08 09:14:48;;;;;;;;;;;17.50;99.90;;;;;;5039272;28;19962;-86
2023/08/08 09:17:14;;;;;;;;;;;17.60;99.90;;;;;;5042974;28;19915;-86
2023/08/08 09:19:44;;;;;;;;;;;18.00;99.90;;;;;;5038754;28;19908;-86
2023/08/08 09:22:09;;;;;;;;;;;17.90;99.90;;;;;;5038494;28;19912;-87
2023/08/08 09:24:40;;;;;;;;;;;18.10;99.90;;;;;;5055450;28;19968;-86
2023/08/08 09:27:06;;;;;;;;;;;17.90;99.90;;;;;;5055317;28;20403;-86
2023/08/08 09:29:32;;;;;;;;;;;17.80;99.90;;;;;;5055787;28;20336;-87
2023/08/08 09:31:58;;;;;;;;;;;18.40;99.90;;;;;;5038820;28;19916;-87
2023/08/08 09:34:24;;;;;;;;;;;18.40;99.90;;;;;;5038851;28;19908;-86
2023/08/08 09:36:49;;;;;;;;;;;18.50;99.90;;;;;;5055527;28;19912;-86
2023/08/08 09:39:16;;;;;;;;;;;18.60;99.90;;;;;;5054449;28;19916;-87
2023/08/08 09:41:41;;;;;;;;;;;18.80;99.90;;;;;;5038724;28;19908;-86
2023/08/08 09:44:07;;;;;;;;;;;18.80;99.90;;;;;;5039455;28;19962;-87
2023/08/08 09:46:34;;;;;;;;;;;19.20;99.90;;;;;;5038084;28;20003;-86
2023/08/08 09:49:01;;;;;;;;;;;19.90;99.90;;;;;;5034030;28;19971;-87
2023/08/08 09:51:27;;;;;;;;;;;20.50;99.90;;;;;;5037206;28;19909;-86
2023/08/08 09:53:52;;;;;;;;;;;20.70;99.90;;;;;;5053862;28;20371;-87
2023/08/08 09:56:19;;;;;;;;;;;20.60;99.90;;;;;;5037392;28;19909;-86
2023/08/08 09:58:45;;;;;;;;;;;20.70;99.90;;;;;;5037296;28;20267;-86
2023/08/08 10:01:12;;;;;;;;;;;20.60;99.90;;;;;;5043625;28;19916;-86
2023/08/08 10:03:38;;;;;;;;;;;20.80;99.90;;;;;;5084657;28;19909;-87
2023/08/08 10:06:03;;;;;;;;;;;20.60;99.90;;;;;;5037443;28;20007;-86
2023/08/08 10:08:30;;;;;;;;;;;19.80;99.90;;;;;;5036545;28;20386;-86
2023/08/08 10:10:56;;;;;;;;;;;19.50;99.90;;;;;;5035827;28;20299;-86
2023/08/08 10:13:22;;;;;;;;;;;19.30;99.90;;;;;;5049093;28;19908;-86
2023/08/08 10:15:48;;;;;;;;;;;19.50;99.90;;;;;;5035644;28;19913;-86
2023/08/08 10:18:14;;;;;;;;;;;19.20;99.90;;;;;;5053866;28;19947;-86
2023/08/08 10:20:42;;;;;;;;;;;19.70;99.90;;;;;;5052057;28;19912;-87
2023/08/08 10:23:07;;;;;;;;;;;19.70;99.90;;;;;;5053490;28;19908;-87
2023/08/08 10:25:33;;;;;;;;;;;19.30;99.90;;;;;;5036255;28;19915;-86
2023/08/08 10:28:03;;;;;;;;;;;19.30;99.90;;;;;;5033644;28;20217;-86
2023/08/08 10:30:29;;;;;;;;;;;19.70;99.90;;;;;;5050963;28;19916;-86
2023/08/08 10:32:56;;;;;;;;;;;20.10;99.90;;;;;;5052332;28;20364;-86
2023/08/08 10:35:24;;;;;;;;;;;20.70;99.90;;;;;;5054915;28;19909;-86
2023/08/08 10:37:53;;;;;;;;;;;20.70;99.90;;;;;;5053975;28;20352;-87
2023/08/08 10:40:19;;;;;;;;;;;20.90;99.90;;;;;;5037507;28;19916;-86
2023/08/08 10:42:46;;;;;;;;;;;20.40;99.90;;;;;;5053901;28;19909;-86
2023/08/08 10:45:15;;;;;;;;;;;19.80;99.90;;;;;;5037231;28;19915;-86
2023/08/08 10:47:42;;;;;;;;;;;19.50;99.90;;;;;;5037188;28;19917;-87
2023/08/08 10:50:11;;;;;;;;;;;19.40;99.90;;;;;;5053646;28;19913;-86
2023/08/08 10:52:40;;;;;;;;;;;19.30;99.90;;;;;;5053858;28;19911;-86
2023/08/08 10:55:06;;;;;;;;;;;19.20;99.90;;;;;;5037212;28;19912;-86
2023/08/08 10:57:31;;;;;;;;;;;19.90;99.90;;;;;;5037148;28;20409;-86
2023/08/08 11:00:16;;;;;;;;;;;20.60;99.90;;;;;;5053340;28;19909;-86
2023/08/08 11:02:41;;;;;;;;;;;20.20;99.90;;;;;;5037110;28;19908;-86
2023/08/08 11:05:07;;;;;;;;;;;20.30;99.90;;;;;;5036515;28;19904;-87
2023/08/08 11:07:35;;;;;;;;;;;20.60;99.90;;;;;;5036732;28;19908;-86
2023/08/08 11:10:00;;;;;;;;;;;21.10;99.90;;;;;;5053073;28;19928;-87
2023/08/08 11:12:26;;;;;;;;;;;20.70;99.90;;;;;;5036927;28;19908;-86
2023/08/08 11:14:52;;;;;;;;;;;20.80;99.90;;;;;;5053180;28;19998;-86
2023/08/08 11:17:18;;;;;;;;;;;20.90;99.90;;;;;;5036662;28;19916;-86
2023/08/08 11:19:43;;;;;;;;;;;21.10;99.90;;;;;;5053136;28;20025;-86
2023/08/08 11:22:11;;;;;;;;;;;20.90;99.90;;;;;;5036651;28;19919;-86
2023/08/08 11:24:36;;;;;;;;;;;20.80;99.90;;;;;;5053550;28;19944;-86
2023/08/08 11:27:02;;;;;;;;;;;20.70;99.90;;;;;;5036449;28;20253;-87
2023/08/08 11:29:30;;;;;;;;;;;20.50;99.90;;;;;;5053616;28;20380;-86
2023/08/08 11:32:05;;;;;;;;;;;20.90;99.90;;;;;;5053296;28;19954;-87
2023/08/08 11:34:34;;;;;;;;;;;20.60;99.90;;;;;;5035911;28;19948;-87
2023/08/08 11:37:00;;;;;;;;;;;20.40;99.90;;;;;;5069424;28;19931;-86
2023/08/08 11:39:26;;;;;;;;;;;20.30;99.90;;;;;;5052934;28;19954;-87
2023/08/08 11:41:52;;;;;;;;;;;20.00;99.90;;;;;;5050115;28;20577;-86
2023/08/08 11:44:18;;;;;;;;;;;19.60;99.90;;;;;;5033982;28;20011;-86
2023/08/08 11:46:48;;;;;;;;;;;19.50;99.90;;;;;;5050340;28;19915;-86
2023/08/08 11:49:17;;;;;;;;;;;19.10;99.90;;;;;;5035391;28;19913;-86
2023/08/08 11:51:43;;;;;;;;;;;19.20;99.90;;;;;;5034968;28;19908;-86
2023/08/08 11:54:10;;;;;;;;;;;19.60;99.90;;;;;;5057902;28;19924;-87
2023/08/08 11:56:36;;;;;;;;;;;20.20;99.90;;;;;;5045960;28;20409;-86
2023/08/08 11:59:02;;;;;;;;;;;19.90;99.90;;;;;;5050455;28;19916;-87
2023/08/08 12:01:28;;;;;;;;;;;19.80;99.90;;;;;;5051313;28;19963;-86
2023/08/08 12:03:54;;;;;;;;;;;19.50;99.90;;;;;;5055659;28;19915;-86
2023/08/08 12:06:20;;;;;;;;;;;19.30;99.90;;;;;;5040031;28;19912;-86
2023/08/08 12:08:46;;;;;;;;;;;19.40;99.90;;;;;;5039834;28;20344;-86
2023/08/08 12:11:12;;;;;;;;;;;19.10;99.90;;;;;;5053203;28;19909;-86
2023/08/08 12:13:41;;;;;;;;;;;19.20;99.90;;;;;;5083230;28;19909;-86
2023/08/08 12:16:11;;;;;;;;;;;19.40;99.90;;;;;;5085156;28;20279;-86
2023/08/08 12:18:38;;;;;;;;;;;19.30;99.90;;;;;;5055625;28;20292;-85
2023/08/08 12:21:04;;;;;;;;;;;19.30;99.90;;;;;;5039438;28;19909;-87
2023/08/08 12:23:30;;;;;;;;;;;19.30;99.90;;;;;;5046944;28;19912;-87
2023/08/08 12:25:57;;;;;;;;;;;19.30;99.90;;;;;;5070268;28;20000;-87
2023/08/08 12:28:23;;;;;;;;;;;19.40;99.90;;;;;;5039469;28;20071;-87
2023/08/08 12:30:48;;;;;;;;;;;19.30;99.90;;;;;;5054717;28;20023;-87
2023/08/08 12:33:14;;;;;;;;;;;19.60;99.90;;;;;;5053597;28;19908;-87
2023/08/08 12:35:40;;;;;;;;;;;20.00;99.90;;;;;;5050776;28;19919;-87
2023/08/08 12:38:05;;;;;;;;;;;20.40;99.90;;;;;;5038975;28;20379;-87
2023/08/08 12:40:31;;;;;;;;;;;20.10;99.90;;;;;;5050042;28;19954;-86
2023/08/08 12:42:57;;;;;;;;;;;20.20;99.90;;;;;;5038754;28;19913;-87
2023/08/08 12:45:22;;;;;;;;;;;20.30;99.90;;;;;;5055539;28;20271;-87
2023/08/08 12:47:48;;;;;;;;;;;20.80;99.90;;;;;;5053815;28;19955;-87
2023/08/08 12:50:14;;;;;;;;;;;20.60;99.90;;;;;;5055235;28;19920;-87
2023/08/08 12:52:40;;;;;;;;;;;20.80;99.90;;;;;;5038696;28;19912;-86
2023/08/08 12:55:07;;;;;;;;;;;21.20;99.90;;;;;;5038799;28;19958;-87
2023/08/08 12:57:32;;;;;;;;;;;21.50;99.90;;;;;;5054932;28;19909;-86
2023/08/08 12:59:58;;;;;;;;;;;21.70;99.90;;;;;;5053435;28;20264;-86
2023/08/08 13:02:24;;;;;;;;;;;21.70;99.90;;;;;;5035387;28;19909;-87
2023/08/08 13:04:49;;;;;;;;;;;21.10;99.90;;;;;;5052030;28;19913;-86
2023/08/08 13:07:16;;;;;;;;;;;20.80;99.90;;;;;;5050456;28;19909;-86
2023/08/08 13:09:41;;;;;;;;;;;20.40;99.90;;;;;;5053085;28;19963;-87
2023/08/08 13:12:07;;;;;;;;;;;20.50;99.90;;;;;;5054937;28;19909;-87
2023/08/08 13:14:33;;;;;;;;;;;20.80;99.90;;;;;;5033992;28;20016;-87
2023/08/08 13:17:01;;;;;;;;;;;21.40;99.90;;;;;;5035755;28;20057;-87
2023/08/08 13:19:27;;;;;;;;;;;21.50;99.90;;;;;;5037857;28;19916;-86
2023/08/08 13:21:54;;;;;;;;;;;22.40;98.20;;;;;;5053106;28;19913;-87
2023/08/08 13:24:22;;;;;;;;;;;23.00;97.30;;;;;;5036715;28;19920;-86
2023/08/08 13:26:48;;;;;;;;;;;23.00;95.70;;;;;;5051508;28;19908;-87
2023/08/08 13:29:17;;;;;;;;;;;22.80;95.80;;;;;;5037629;28;19986;-87
2023/08/08 13:31:43;;;;;;;;;;;22.90;95.80;;;;;;5051496;28;19916;-87
2023/08/08 13:34:09;;;;;;;;;;;22.80;94.60;;;;;;5085918;28;19917;-86
2023/08/08 13:36:34;;;;;;;;;;;22.00;94.00;;;;;;5038330;28;19917;-87
2023/08/08 13:39:00;;;;;;;;;;;21.30;95.90;;;;;;5054009;28;19992;-88
2023/08/08 13:41:26;;;;;;;;;;;20.90;95.00;;;;;;5036194;28;19915;-87
2023/08/08 13:43:51;;;;;;;;;;;20.30;94.00;;;;;;5050131;28;19915;-87
2023/08/08 13:46:17;;;;;;;;;;;20.10;94.60;;;;;;5034169;28;19909;-88
2023/08/08 13:48:43;;;;;;;;;;;20.30;96.60;;;;;;5043134;28;19936;-87
2023/08/08 13:51:08;;;;;;;;;;;20.60;96.20;;;;;;5037673;28;19913;-90
2023/08/08 13:53:34;;;;;;;;;;;20.80;96.30;;;;;;5054036;28;19912;-87
2023/08/08 13:55:59;;;;;;;;;;;21.00;95.90;;;;;;5046270;28;19917;-87
2023/08/08 13:58:25;;;;;;;;;;;20.70;96.20;;;;;;5037293;28;19908;-87
2023/08/08 14:00:51;;;;;;;;;;;20.70;95.90;;;;;;5047641;28;19913;-88
2023/08/08 14:03:17;;;;;;;;;;;20.70;97.20;;;;;;5045485;28;20253;-87
2023/08/08 14:05:43;;;;;;;;;;;20.80;96.10;;;;;;5050197;28;19909;-87
2023/08/08 14:08:09;;;;;;;;;;;20.60;95.20;;;;;;5045843;28;20010;-87
2023/08/08 14:10:35;;;;;;;;;;;20.50;95.80;;;;;;5037267;28;19956;-86
2023/08/08 14:13:01;;;;;;;;;;;20.30;95.80;;;;;;5033338;28;19917;-86
2023/08/08 14:15:27;;;;;;;;;;;20.10;96.70;;;;;;5054381;28;19908;-86
2023/08/08 14:18:05;;;;;;;;;;;19.90;97.70;;;;;;5037897;28;19913;-86